Latest Weather Observations for Mildura

IDN60801

Issued at 3:32 pm EST Wednesday 27 May 2015 (issued every 30 minutes, with the page automatically refreshed every 10 minutes)

About weather observations | Map of weather stations | Latest weather observations for NSW | Other Formats
Station Details ID: 076031 Name: MILDURA AIRPORT Lat: -34.24 Lon: 142.09 Height: 50.0 m
Data from the previous 72 hours. | See also: Recent months at Mildura
Date/Time
EST
Temp
°C
App
Temp
°C
Dew
Point
Rel
Hum
%
Delta-T
°C
Wind Press
QNH
hPa
Press
MSL
hPa
Rain
since 9 am
mm
Dir
 
Spd
km/h
Gust
km/h
Spd
kts
Gust
kts
27/03:30pm 22.1 19.1 7.5 39 7.6 WNW 13 19 7 10 1019.3 1019.3 0.0
27/03:00pm 22.0 19.4 7.8 40 7.4 NW 11 17 6 9 1019.2 1019.2 0.0
27/02:30pm 22.1 19.3 8.6 42 7.2 NW 13 22 7 12 1019.3 1019.3 0.0
27/02:00pm 21.9 19.6 9.1 44 6.8 NW 11 17 6 9 1019.5 1019.5 0.0
27/01:30pm 21.7 19.6 9.6 46 6.5 NW 11 17 6 9 1019.9 1019.9 0.0
27/01:00pm 21.4 19.7 11.1 52 5.7 WNW 11 19 6 10 1020.3 1020.3 0.0
27/12:30pm 20.7 17.8 9.6 49 5.9 W 15 20 8 11 1020.7 1020.7 0.0
27/12:00pm 20.4 18.2 9.3 49 5.9 NW 11 17 6 9 1021.2 1021.2 0.0
27/11:30am 19.2 17.7 10.7 58 4.6 NW 9 13 5 7 1021.8 1021.8 0.0
27/11:00am 18.0 16.4 10.1 60 4.2 NNW 9 11 5 6 1021.9 1021.9 0.0
27/10:30am 16.2 14.8 10.9 71 2.8 NNE 9 13 5 7 1022.1 1022.1 0.0
27/10:00am 15.3 13.9 10.9 75 2.3 N 9 13 5 7 1022.3 1022.3 0.0
27/09:30am 14.3 13.2 10.5 78 2.0 N 7 9 4 5 1022.2 1022.2 0.0
27/09:00am 13.1 12.0 9.9 81 1.6 NNE 6 7 3 4 1022.2 1022.2 0.0
27/08:30am 11.4 10.9 9.5 88 1.0 NE 2 7 1 4 1022.0 1022.0 0.0
27/08:00am 9.9 9.2 8.5 91 0.7 N 2 6 1 3 1021.9 1021.9 0.0
27/07:30am 10.1 9.4 8.4 89 0.8 N 2 7 1 4 1021.7 1021.7 0.0
27/07:00am 10.0 8.3 8.4 90 0.8 NNE 7 9 4 5 1021.5 1021.5 0.0
27/06:30am 10.3 8.7 8.6 89 0.8 NNE 7 7 4 4 1021.2 1021.2 0.0
27/06:00am 10.6 9.1 9.0 90 0.8 NNE 7 9 4 5 1021.1 1021.1 0.0
27/05:30am 10.6 10.3 8.7 88 0.9 CALM 0 0 0 0 1021.0 1021.0 0.0
27/05:00am 10.9 8.9 8.8 87 1.0 N 9 9 5 5 1020.9 1020.9 0.0
27/04:30am 10.7 8.7 8.5 86 1.1 N 9 11 5 6 1020.9 1020.9 0.0
27/04:00am 10.3 8.3 8.7 90 0.8 NNE 9 11 5 6 1021.0 1021.0 0.0
27/03:30am 10.3 8.2 8.1 86 1.1 NNE 9 11 5 6 1021.2 1021.2 0.0
27/03:00am 10.2 7.6 7.8 85 1.2 NNE 11 11 6 6 1021.2 1021.2 0.0
27/02:30am 10.2 8.7 8.3 88 0.9 NNE 6 9 3 5 1021.4 1021.4 0.0
27/02:00am 10.1 8.3 8.0 87 1.0 NNE 7 9 4 5 1021.6 1021.6 0.0
27/01:30am 10.7 8.9 8.1 84 1.3 NNE 7 9 4 5 1021.7 1021.7 0.0
27/01:00am 11.0 9.3 8.4 84 1.3 NE 7 7 4 4 1021.9 1021.9 0.0
27/12:30am 10.8 9.0 8.0 83 1.4 NE 7 9 4 5 1021.9 1021.9 0.0
27/12:00am 10.6 9.5 8.4 86 1.1 E 4 9 2 5 1022.3 1022.3 0.0
 
Date/Time
EST
Temp
°C
App
Temp
°C
Dew
Point
Rel
Hum
%
Delta-T
°C
Wind Press
QNH
hPa
Press
MSL
hPa
Rain
since 9 am
mm
Dir
 
Spd
km/h
Gust
km/h
Spd
kts
Gust
kts
26/11:30pm 10.6 9.1 8.4 86 1.1 E 6 6 3 3 1022.5 1022.5 0.0
26/11:00pm 11.2 10.9 8.6 84 1.3 CALM 0 6 0 3 1022.7 1022.7 0.0
26/10:30pm 11.7 10.4 9.1 84 1.3 NNE 6 7 3 4 1022.8 1022.8 0.0
26/10:00pm 12.3 11.0 9.1 81 1.6 N 6 6 3 3 1023.1 1023.1 0.0
26/09:30pm 13.3 11.9 9.0 75 2.2 NNE 6 7 3 4 1022.7 1022.7 0.0
26/09:00pm 14.2 12.2 8.6 69 2.8 N 9 11 5 6 1022.9 1022.9 0.0
26/08:30pm 14.5 13.1 8.9 69 2.8 N 6 7 3 4 1023.0 1023.0 0.0
26/08:00pm 15.9 14.3 8.6 62 3.7 N 7 9 4 5 1023.0 1023.0 0.0
26/07:30pm 17.7 15.3 8.6 55 4.7 N 11 13 6 7 1023.2 1023.2 0.0
26/07:00pm 17.1 16.6 9.3 60 4.1 ENE 2 17 1 9 1022.9 1022.9 0.0
26/06:30pm 16.5 15.3 9.4 63 3.7 ESE 6 6 3 3 1022.6 1022.6 0.0
26/06:00pm 16.5 16.3 9.0 61 3.9 CALM 0 0 0 0 1022.4 1022.4 0.0
26/05:30pm 17.7 17.4 8.8 56 4.6 CALM 0 0 0 0 1022.4 1022.4 0.0
26/05:00pm 20.4 20.2 9.0 48 6.0 CALM 0 0 0 0 1022.3 1022.3 0.0
26/04:30pm 21.2 20.6 7.4 41 7.1 CALM 0 0 0 0 1022.2 1022.2 0.0
26/04:00pm 21.5 20.9 7.3 40 7.3 CALM 0 0 0 0 1022.5 1022.5 0.0
26/03:30pm 20.9 19.3 7.9 43 6.8 NNE 6 9 3 5 1022.8 1022.8 0.0
26/03:00pm 21.3 19.2 8.2 43 6.8 NE 9 13 5 7 1022.8 1022.8 0.0
26/02:30pm 20.8 18.8 8.8 46 6.3 NE 9 15 5 8 1023.1 1023.1 0.0
26/02:00pm 21.5 19.7 8.1 42 7.0 NE 7 17 4 9 1023.7 1023.7 0.0
26/01:30pm 21.3 19.5 9.5 47 6.3 NNE 9 15 5 8 1024.4 1024.4 0.0
26/01:00pm 20.4 18.4 8.7 47 6.1 NNE 9 13 5 7 1024.7 1024.7 0.0
26/12:30pm 20.1 18.4 9.9 52 5.5 N 9 15 5 8 1025.3 1025.3 0.0
26/12:00pm 19.1 16.3 8.7 51 5.4 NE 13 17 7 9 1025.2 1025.2 0.0
26/11:30am 17.7 15.8 9.1 57 4.5 NE 9 15 5 8 1026.2 1026.2 0.0
26/11:00am 17.1 15.4 8.5 57 4.4 N 7 11 4 6 1027.1 1027.1 0.0
26/10:30am 15.8 13.0 8.5 62 3.7 NNE 13 15 7 8 1027.1 1027.1 0.0
26/10:00am 15.8 14.0 9.5 66 3.3 NE 9 13 5 7 1027.0 1027.0 0.0
26/09:30am 14.5 13.0 9.3 71 2.7 E 7 11 4 6 1027.0 1027.0 0.0
26/09:00am 12.7 11.3 9.0 78 1.9 E 6 9 3 5 1027.4 1027.4 0.0
26/08:30am 12.2 10.7 9.2 82 1.5 NNE 7 9 4 5 1027.6 1027.6 0.0
26/08:00am 11.8 10.2 8.1 78 1.8 N 6 7 3 4 1027.6 1027.6 0.0
26/07:30am 11.3 9.6 8.3 82 1.5 NE 7 9 4 5 1027.3 1027.3 0.0
26/07:00am 11.2 9.5 8.2 82 1.5 NE 7 7 4 4 1027.3 1027.3 0.0
26/06:30am 10.9 10.5 8.3 84 1.3 CALM 0 0 0 0 1027.0 1027.0 0.0
26/06:00am 11.0 10.1 7.9 81 1.5 NNE 2 6 1 3 1026.8 1026.8 0.0
26/05:30am 10.9 9.3 8.1 83 1.4 E 6 9 3 5 1026.6 1026.6 0.0
26/05:00am 11.1 9.5 8.1 82 1.5 NE 6 7 3 4 1027.1 1027.1 0.0
26/04:30am 10.5 10.0 7.9 84 1.3 CALM 0 0 0 0 1026.9 1026.9 0.0
26/04:00am 10.1 9.6 8.0 87 1.0 CALM 0 0 0 0 1027.0 1027.0 0.0
26/03:30am 10.2 9.6 7.6 84 1.2 CALM 0 0 0 0 1027.2 1027.2 0.0
26/03:00am 10.4 9.8 7.6 83 1.3 CALM 0 0 0 0 1027.4 1027.4 0.0
26/02:30am 10.8 10.3 7.9 82 1.4 CALM 0 0 0 0 1027.5 1027.5 0.0
26/02:00am 10.6 10.1 7.7 82 1.4 CALM 0 0 0 0 1027.4 1027.4 0.0
26/01:30am 10.7 9.1 7.8 82 1.4 SE 6 6 3 3 1027.6 1027.6 0.0
26/01:00am 10.4 9.8 7.6 83 1.3 CALM 0 0 0 0 1027.7 1027.7 0.0
26/12:30am 10.0 9.0 7.4 84 1.2 E 2 6 1 3 1027.9 1027.9 0.0
26/12:00am 10.1 9.5 7.5 84 1.2 CALM 0 0 0 0 1028.1 1028.1 0.0
 
Date/Time
EST
Temp
°C
App
Temp
°C
Dew
Point
Rel
Hum
%
Delta-T
°C
Wind Press
QNH
hPa
Press
MSL
hPa
Rain
since 9 am
mm
Dir
 
Spd
km/h
Gust
km/h
Spd
kts
Gust
kts
25/11:30pm 10.0 8.3 7.4 84 1.2 SSE 6 7 3 4 1028.2 1028.2 0.0
25/11:00pm 10.0 8.0 7.3 83 1.3 SSE 7 9 4 5 1028.0 1028.0 0.0
25/10:30pm 10.8 9.0 7.9 82 1.4 ESE 7 7 4 4 1028.2 1028.2 0.0
25/10:00pm 10.6 8.8 7.8 83 1.3 ESE 7 9 4 5 1028.2 1028.2 0.0
25/09:30pm 10.3 8.4 7.4 82 1.4 ESE 7 9 4 5 1028.3 1028.3 0.0
25/09:00pm 10.8 9.1 7.5 80 1.6 ENE 6 6 3 3 1028.6 1028.6 0.0
25/08:30pm 11.5 9.8 7.4 76 2.0 SE 6 7 3 4 1028.6 1028.6 0.0
25/08:00pm 11.8 9.9 7.5 75 2.1 SE 7 7 4 4 1028.4 1028.4 0.0
25/07:30pm 12.5 10.9 7.8 73 2.3 SSE 6 7 3 4 1028.4 1028.4 0.0
25/07:00pm 12.8 11.1 7.7 71 2.5 S 6 9 3 5 1028.1 1028.1 0.0
25/06:30pm 13.2 11.3 7.4 68 2.8 S 7 9 4 5 1027.7 1027.7 0.0
25/06:09pm 14.2 12.5 7.5 64 3.3 SSE 6 9 3 5 1027.7 1027.7 0.0
25/06:00pm 14.6 14.2 8.1 65 3.2 CALM 0 0 0 0 1027.5 1027.5 0.0
25/05:57pm 14.7 14.2 8.0 64 3.4 CALM 0 0 0 0 1027.5 1027.5 0.0
25/05:30pm 16.3 15.8 7.8 57 4.3 CALM 0 0 0 0 1026.8 1026.8 0.0
25/05:00pm 18.2 17.8 8.2 52 5.1 CALM 0 0 0 0 1026.8 1026.8 0.0
25/04:30pm 19.7 19.0 7.1 44 6.4 CALM 0 0 0 0 1026.9 1026.9 0.0
25/04:00pm 20.2 18.7 6.9 42 6.7 N 4 7 2 4 1027.0 1027.0 0.0
25/03:30pm 20.1 18.6 8.4 47 6.1 SW 6 9 3 5 1027.0 1027.0 0.0
25/03:00pm 19.6 18.1 7.0 44 6.3 ESE 4 9 2 5 1026.8 1026.8 0.0
25/02:30pm 19.7 17.9 7.8 46 6.1 SSE 7 13 4 7 1026.9 1026.9 0.0
25/02:00pm 19.6 17.9 8.3 48 5.8 WNW 7 13 4 7 1027.2 1027.2 0.0
25/01:30pm 19.2 17.2 7.3 46 6.0 E 7 11 4 6 1027.7 1027.7 0.0
25/01:00pm 18.9 18.0 7.7 48 5.7 NW 2 7 1 4 1028.4 1028.4 0.0
25/12:30pm 18.8 18.5 8.5 51 5.3 CALM 0 0 0 0 1028.9 1028.9 0.0
25/12:00pm 17.3 15.5 7.1 51 5.1 SSE 6 9 3 5 1029.5 1029.5 0.0
25/11:30am 16.9 16.1 8.1 56 4.5 SSE 2 13 1 7 1030.1 1030.1 0.0
25/11:00am 16.4 14.9 6.8 53 4.7 N 4 9 2 5 1030.3 1030.3 0.0
25/10:30am 15.6 13.9 6.1 53 4.6 NE 4 9 2 5 1030.6 1030.6 0.0
25/10:00am 13.6 11.3 5.7 59 3.7 NE 7 9 4 5 1030.8 1030.8 0.0
25/09:30am 12.1 9.8 5.7 65 3.0 NE 7 9 4 5 1031.0 1031.0 0.0
25/09:00am 11.4 10.2 6.3 71 2.4 ESE 2 7 1 4 1030.8 1030.8 0.0
25/08:30am 8.5 6.7 5.3 80 1.4 E 4 7 2 4 1030.7 1030.7 0.0
25/08:00am 8.2 6.4 5.3 82 1.3 E 4 7 2 4 1030.4 1030.4 0.0
25/07:30am 8.1 5.7 5.4 83 1.2 ENE 7 9 4 5 1030.1 1030.1 0.0
25/07:00am 7.8 5.6 5.1 83 1.2 ESE 6 7 3 4 1030.0 1030.0 0.0
25/06:30am 7.3 4.8 4.9 85 1.1 E 7 9 4 5 1029.7 1029.7 0.0
25/06:00am 7.3 4.9 5.4 88 0.8 ESE 7 9 4 5 1029.6 1029.6 0.0
25/05:30am 7.8 5.6 5.4 85 1.1 SE 6 7 3 4 1029.5 1029.5 0.0
25/05:00am 8.4 6.3 6.0 85 1.1 ESE 6 7 3 4 1029.2 1029.2 0.0
25/04:30am 8.4 6.4 6.2 86 1.0 SE 6 7 3 4 1029.2 1029.2 0.0
25/04:00am 8.4 7.5 6.0 85 1.1 CALM 0 0 0 0 1029.6 1029.6 0.0
25/03:30am 8.6 6.6 6.2 85 1.1 E 6 6 3 3 1029.4 1029.4 0.0
25/03:00am 8.7 6.7 6.3 85 1.1 SE 6 7 3 4 1029.2 1029.2 0.0
25/02:30am 8.9 8.0 6.0 82 1.3 CALM 0 0 0 0 1029.4 1029.4 0.0
25/02:00am 9.3 8.4 6.2 81 1.4 CALM 0 0 0 0 1029.3 1029.3 0.0
25/01:30am 9.7 7.7 6.2 79 1.6 NE 6 9 3 5 1029.4 1029.4 0.0
25/01:00am 9.1 6.9 6.4 83 1.2 ENE 7 11 4 6 1029.2 1029.2 0.0
25/12:30am 9.7 9.0 6.8 82 1.4 CALM 0 7 0 4 1029.8 1029.8 0.0
25/12:00am 10.2 8.4 7.1 81 1.5 ENE 6 7 3 4 1029.7 1029.7 0.0
 
Date/Time
EST
Temp
°C
App
Temp
°C
Dew
Point
Rel
Hum
%
Delta-T
°C
Wind Press
QNH
hPa
Press
MSL
hPa
Rain
since 9 am
mm
Dir
 
Spd
km/h
Gust
km/h
Spd
kts
Gust
kts
24/11:30pm 10.3 8.4 6.8 79 1.7 E 6 7 3 4 1029.8 1029.8 0.0
24/11:00pm 10.7 9.3 7.4 80 1.6 ENE 4 9 2 5 1030.2 1030.2 0.0
24/10:30pm 11.3 9.3 7.2 76 2.0 E 7 9 4 5 1029.6 1029.6 0.0
24/10:00pm 11.4 10.8 7.3 76 2.0 CALM 0 0 0 0 1030.2 1030.2 0.0
24/09:30pm 12.1 9.8 7.4 73 2.3 E 9 11 5 6 1029.9 1029.9 0.0
24/09:00pm 11.9 10.0 7.6 75 2.1 ESE 7 9 4 5 1030.0 1030.0 0.0
24/08:30pm 11.9 10.0 7.6 75 2.1 ESE 7 11 4 6 1029.9 1029.9 0.0
24/08:00pm 12.2 11.2 7.5 73 2.3 SE 2 9 1 5 1029.8 1029.8 0.0
24/07:30pm 11.9 10.6 7.6 75 2.1 E 4 9 2 5 1029.9 1029.9 0.0
24/07:00pm 12.1 11.5 7.6 74 2.2 CALM 0 0 0 0 1030.2 1030.2 0.0
24/06:30pm 12.8 11.9 7.7 71 2.5 WNW 2 6 1 3 1029.9 1029.9 0.0
24/06:00pm 13.4 12.8 7.4 67 2.9 CALM 0 0 0 0 1029.4 1029.4 0.0
24/05:30pm 14.2 13.7 7.7 65 3.2 CALM 0 0 0 0 1029.1 1029.1 0.0
24/05:00pm 15.7 15.2 7.7 59 4.0 CALM 0 0 0 0 1028.7 1028.7 0.0
24/04:30pm 16.9 16.1 6.7 51 5.0 CALM 0 6 0 3 1028.9 1028.9 0.0
24/04:00pm 17.6 15.6 6.2 47 5.6 NNW 6 9 3 5 1028.9 1028.9 0.0

Other Formats:

Comma delimited format used in spreadsheet applications
http://www.bom.gov.au/fwo/IDN60801/IDN60801.94693.axf

JavaScript Object Notation format (JSON) in row-major order
http://www.bom.gov.au/fwo/IDN60801/IDN60801.94693.json